createdAt,value
2019-01-23T00:00:04.805Z,99839.44
2019-01-23T00:02:43.362Z,99834.49
2019-01-23T00:05:13.708Z,99835.45
2019-01-23T00:07:44.059Z,99826.66
2019-01-23T00:10:15.611Z,99825.13
2019-01-23T00:12:46.137Z,99821.83
2019-01-23T00:15:16.874Z,99819.05
2019-01-23T00:17:47.193Z,99820.30
2019-01-23T00:20:17.731Z,99822.02
2019-01-23T00:22:51.840Z,99820.00
2019-01-23T00:25:22.178Z,99817.11
2019-01-23T00:27:52.542Z,99814.67
2019-01-23T00:30:25.492Z,99813.34
2019-01-23T00:32:56.036Z,99806.76
2019-01-23T00:35:26.931Z,99796.41
2019-01-23T00:37:58.273Z,99791.77
2019-01-23T00:40:30.511Z,99788.98
2019-01-23T00:43:01.140Z,99785.67
2019-01-23T00:45:34.070Z,99779.81
2019-01-23T00:48:04.523Z,99779.89
2019-01-23T00:50:37.365Z,99773.99
2019-01-23T00:53:09.802Z,99763.38
2019-01-23T00:55:43.096Z,99763.38
2019-01-23T00:58:13.629Z,99778.33
2019-01-23T01:00:44.200Z,99766.56
2019-01-23T01:03:14.734Z,99764.63
2019-01-23T01:05:46.423Z,99770.52
2019-01-23T01:08:16.766Z,99767.70
2019-01-23T01:10:48.037Z,99754.66
2019-01-23T01:13:22.318Z,99754.66
2019-01-23T01:15:50.749Z,99757.08
2019-01-23T01:18:21.400Z,99759.59
2019-01-23T01:20:52.058Z,99760.05
2019-01-23T01:23:22.495Z,99757.92
2019-01-23T01:25:53.004Z,99756.77
2019-01-23T01:28:23.581Z,99754.26
2019-01-23T01:30:54.984Z,99749.31
2019-01-23T01:33:27.410Z,99746.42
2019-01-23T01:35:57.864Z,99752.31
2019-01-23T01:38:29.566Z,99756.65
2019-01-23T01:41:05.012Z,99752.58
2019-01-23T01:43:35.355Z,99748.53
2019-01-23T01:46:08.721Z,99746.86
2019-01-23T01:48:40.936Z,99746.20
2019-01-23T01:51:11.346Z,99750.73
2019-01-23T01:53:47.299Z,99746.97
2019-01-23T01:56:14.224Z,99739.43
2019-01-23T01:58:44.875Z,99738.66
2019-01-23T02:01:16.383Z,99738.25
2019-01-23T02:03:48.864Z,99737.48
2019-01-23T02:06:19.173Z,99732.84
2019-01-23T02:08:50.929Z,99734.59
2019-01-23T02:11:21.274Z,99729.64
2019-01-23T02:13:53.683Z,99727.23
2019-01-23T02:16:24.096Z,99718.44
2019-01-23T02:18:55.658Z,99723.16
2019-01-23T02:21:27.313Z,99726.43
2019-01-23T02:24:00.002Z,99721.41
2019-01-23T02:26:30.316Z,99720.64
2019-01-23T02:29:01.758Z,99716.88
2019-01-23T02:31:32.367Z,99717.36
2019-01-23T02:34:13.542Z,99716.11
2019-01-23T02:36:44.112Z,99711.53
2019-01-23T02:39:15.365Z,99714.05
2019-01-23T02:41:45.998Z,99713.28
2019-01-23T02:44:16.781Z,99706.13
2019-01-23T02:46:47.293Z,99698.97
2019-01-23T02:49:19.078Z,99701.03
2019-01-23T02:51:50.830Z,99704.80
2019-01-23T02:54:26.422Z,99696.56
2019-01-23T02:56:57.052Z,99694.61
2019-01-23T02:59:29.748Z,99690.08
2019-01-23T03:02:00.401Z,99696.36
2019-01-23T03:04:33.337Z,99692.17
2019-01-23T03:07:05.183Z,99685.05
2019-01-23T03:09:35.509Z,99678.77
2019-01-23T03:12:08.213Z,99677.52
2019-01-23T03:14:39.340Z,99672.38
2019-01-23T03:17:09.695Z,99685.44
2019-01-23T03:19:41.118Z,99675.38
2019-01-23T03:22:11.531Z,99676.64
2019-01-23T03:24:42.333Z,99673.33
2019-01-23T03:27:13.121Z,99676.33
2019-01-23T03:29:45.004Z,99675.45
2019-01-23T03:32:15.477Z,99670.42
2019-01-23T03:34:45.872Z,99672.94
2019-01-23T03:37:16.807Z,99663.69
2019-01-23T03:39:47.115Z,99662.50
2019-01-23T03:42:17.722Z,99657.09
2019-01-23T03:44:48.126Z,99662.50
2019-01-23T03:47:20.579Z,99653.22
2019-01-23T03:49:51.159Z,99653.05
2019-01-23T03:52:23.352Z,99654.41
2019-01-23T03:54:55.268Z,99656.61
2019-01-23T03:57:26.162Z,99655.03
2019-01-23T03:59:56.543Z,99657.09
2019-01-23T04:02:27.398Z,99651.58
2019-01-23T04:04:58.160Z,99649.63
2019-01-23T04:07:30.294Z,99647.98
2019-01-23T04:10:02.631Z,99646.66
2019-01-23T04:12:34.372Z,99638.25
2019-01-23T04:15:06.793Z,99639.89
2019-01-23T04:17:39.846Z,99644.04
2019-01-23T04:20:13.522Z,99638.70
2019-01-23T04:22:44.733Z,99639.58
2019-01-23T04:25:15.746Z,99635.73
2019-01-23T04:27:48.143Z,99634.48
2019-01-23T04:30:22.790Z,99629.52
2019-01-23T04:32:55.446Z,99624.88
2019-01-23T04:35:28.332Z,99624.88
2019-01-23T04:37:58.845Z,99627.28
2019-01-23T04:40:29.415Z,99634.34
2019-01-23T04:43:00.239Z,99626.80
2019-01-23T04:45:33.255Z,99626.48
2019-01-23T04:48:04.267Z,99631.52
2019-01-23T04:50:53.504Z,99623.69
2019-01-23T04:53:37.891Z,99618.84
2019-01-23T04:56:11.186Z,99616.77
2019-01-23T04:58:41.414Z,99612.55
2019-01-23T05:01:11.920Z,99615.34
2019-01-23T05:03:43.231Z,99619.50
2019-01-23T05:06:13.816Z,99607.35
2019-01-23T05:08:52.059Z,99607.18
2019-01-23T05:11:22.746Z,99603.48
2019-01-23T05:13:53.194Z,99597.58
2019-01-23T05:16:28.135Z,99603.58
2019-01-23T05:18:58.861Z,99605.13
2019-01-23T05:21:29.834Z,99605.30
2019-01-23T05:24:00.861Z,99607.80
2019-01-23T05:26:32.754Z,99606.27
2019-01-23T05:29:04.672Z,99608.30
2019-01-23T05:31:35.093Z,99610.46
2019-01-23T05:34:06.878Z,99609.31
2019-01-23T05:36:37.483Z,99611.66
2019-01-23T05:39:09.554Z,99613.59
2019-01-23T05:41:39.867Z,99618.92
2019-01-23T05:44:10.825Z,99616.17
2019-01-23T05:46:41.233Z,99615.95
2019-01-23T05:49:11.869Z,99615.03
2019-01-23T05:51:42.179Z,99623.78
2019-01-23T05:54:14.413Z,99622.23
2019-01-23T05:56:45.070Z,99617.89
2019-01-23T05:59:15.500Z,99621.77
2019-01-23T06:01:45.938Z,99622.34
2019-01-23T06:04:18.066Z,99619.37
2019-01-23T06:06:48.407Z,99625.30
2019-01-23T06:09:22.783Z,99624.93
2019-01-23T06:11:53.254Z,99625.91
2019-01-23T06:14:25.225Z,99628.61
2019-01-23T06:16:57.274Z,99622.46
2019-01-23T06:19:28.347Z,99627.96
2019-01-23T06:22:01.319Z,99627.31
2019-01-23T06:24:32.697Z,99633.28
2019-01-23T06:27:03.106Z,99630.09
2019-01-23T06:29:33.512Z,99626.91
2019-01-23T06:32:06.240Z,99628.65
2019-01-23T06:34:37.792Z,99628.73
2019-01-23T06:37:08.566Z,99632.00
2019-01-23T06:39:44.610Z,99630.47
2019-01-23T06:42:15.328Z,99635.19
2019-01-23T06:44:47.016Z,99632.98
2019-01-23T06:47:17.643Z,99641.65
2019-01-23T06:49:48.186Z,99638.91
2019-01-23T06:52:20.234Z,99632.45
2019-01-23T06:54:50.785Z,99635.59
2019-01-23T06:57:21.533Z,99641.79
2019-01-23T06:59:51.828Z,99639.55
2019-01-23T07:02:22.716Z,99642.69
2019-01-23T07:04:53.260Z,99633.83
2019-01-23T07:07:23.872Z,99638.55
2019-01-23T07:09:54.541Z,99647.20
2019-01-23T07:12:25.141Z,99647.20
2019-01-23T07:14:55.561Z,99650.66
2019-01-23T07:17:25.938Z,99652.78
2019-01-23T07:19:58.898Z,99649.95
2019-01-23T07:22:30.924Z,99654.16
2019-01-23T07:25:01.393Z,99656.48
2019-01-23T07:27:31.881Z,99660.92
2019-01-23T07:30:02.519Z,99663.20
2019-01-23T07:32:34.170Z,99660.98
2019-01-23T07:35:05.175Z,99658.93
2019-01-23T07:37:38.237Z,99657.77
2019-01-23T07:40:12.462Z,99657.77
2019-01-23T07:42:44.424Z,99664.48
2019-01-23T07:45:17.253Z,99660.92
2019-01-23T07:47:50.711Z,99666.63
2019-01-23T07:50:21.034Z,99671.16
2019-01-23T07:52:53.408Z,99674.47
2019-01-23T07:55:23.896Z,99674.75
2019-01-23T07:57:56.157Z,99678.80
2019-01-23T08:00:31.532Z,99672.77
2019-01-23T08:03:01.119Z,99670.88
2019-01-23T08:05:31.763Z,99667.27
2019-01-23T08:08:02.482Z,99674.92
2019-01-23T08:10:33.133Z,99671.61
2019-01-23T08:13:03.528Z,99669.03
2019-01-23T08:15:35.593Z,99671.45
2019-01-23T08:18:07.184Z,99673.16
2019-01-23T08:20:37.708Z,99666.59
2019-01-23T08:23:08.076Z,99671.00
2019-01-23T08:25:42.829Z,99671.48
2019-01-23T08:28:13.257Z,99670.75
2019-01-23T08:30:43.992Z,99675.19
2019-01-23T08:33:14.318Z,99682.86
2019-01-23T08:35:44.974Z,99678.91
2019-01-23T08:38:15.704Z,99676.75
2019-01-23T08:40:46.553Z,99680.01
2019-01-23T08:43:18.840Z,99677.28
2019-01-23T08:45:49.490Z,99680.91
2019-01-23T08:48:21.104Z,99677.08
2019-01-23T08:50:52.606Z,99679.05
2019-01-23T08:53:23.099Z,99672.53
2019-01-23T08:55:56.083Z,99670.72
2019-01-23T08:58:25.671Z,99676.40
2019-01-23T09:00:56.020Z,99675.91
2019-01-23T09:03:28.706Z,99672.92
2019-01-23T09:06:00.593Z,99675.83
2019-01-23T09:08:37.452Z,99676.22
2019-01-23T09:11:05.650Z,99679.12
2019-01-23T09:13:36.032Z,99683.27
2019-01-23T09:16:08.906Z,99685.14
2019-01-23T09:18:41.335Z,99685.59
2019-01-23T09:21:11.698Z,99683.28
2019-01-23T09:23:42.027Z,99689.86
2019-01-23T09:26:14.508Z,99690.70
2019-01-23T09:28:44.925Z,99691.09
2019-01-23T09:31:43.924Z,99698.77
2019-01-23T09:34:39.376Z,99701.40
2019-01-23T09:37:31.265Z,99702.94
2019-01-23T09:40:32.810Z,99702.70
2019-01-23T09:43:19.497Z,99700.56
2019-01-23T09:46:25.753Z,99702.36
2019-01-23T09:49:45.523Z,99704.53
2019-01-23T09:52:54.216Z,99706.95
2019-01-23T09:55:27.047Z,99716.47
2019-01-23T09:58:00.404Z,99714.19
2019-01-23T10:00:31.690Z,99709.77
2019-01-23T10:03:04.127Z,99718.58
2019-01-23T10:05:35.069Z,99723.20
2019-01-23T10:08:07.685Z,99726.81
2019-01-23T10:10:38.007Z,99729.22
2019-01-23T10:13:10.182Z,99730.14
2019-01-23T10:15:50.173Z,99729.78
2019-01-23T10:18:20.632Z,99720.23
2019-01-23T10:20:51.571Z,99721.48
2019-01-23T10:23:22.024Z,99721.08
2019-01-23T10:25:52.647Z,99724.09
2019-01-23T10:28:23.197Z,99726.88
2019-01-23T10:30:53.468Z,99726.80
2019-01-23T10:33:24.447Z,99731.38
2019-01-23T10:35:55.054Z,99735.98
2019-01-23T10:38:25.707Z,99741.73
2019-01-23T10:40:56.202Z,99743.20
2019-01-23T10:43:26.960Z,99746.52
2019-01-23T10:45:57.509Z,99740.05
2019-01-23T10:48:28.158Z,99743.45
2019-01-23T10:50:58.619Z,99741.11
2019-01-23T10:53:30.475Z,99741.46
2019-01-23T10:56:01.127Z,99752.09
2019-01-23T10:58:32.831Z,99751.38
2019-01-23T11:01:03.489Z,99744.27
2019-01-23T11:03:38.406Z,99741.84
2019-01-23T11:06:08.919Z,99744.17
2019-01-23T11:08:42.672Z,99745.95
2019-01-23T11:11:13.270Z,99738.06
2019-01-23T11:13:43.630Z,99738.73
2019-01-23T11:16:14.034Z,99733.26
2019-01-23T11:18:46.283Z,99744.89
2019-01-23T11:21:20.899Z,99738.35
2019-01-23T11:23:51.249Z,99746.51
2019-01-23T11:26:21.614Z,99738.92
2019-01-23T11:28:54.626Z,99735.44
2019-01-23T11:31:25.235Z,99743.73
2019-01-23T11:33:55.964Z,99744.13
2019-01-23T11:36:26.591Z,99741.95
2019-01-23T11:38:58.770Z,99738.84
2019-01-23T11:41:29.530Z,99749.33
2019-01-23T11:44:01.419Z,99749.33
2019-01-23T11:46:31.738Z,99749.64
2019-01-23T11:49:02.040Z,99749.38
2019-01-23T11:51:32.570Z,99756.33
2019-01-23T11:54:06.418Z,99749.27
2019-01-23T11:56:37.150Z,99753.20
2019-01-23T11:59:09.930Z,99750.55
2019-01-23T12:01:42.374Z,99748.92
2019-01-23T12:04:14.402Z,99749.94
2019-01-23T12:06:44.810Z,99757.20
2019-01-23T12:09:15.337Z,99753.75
2019-01-23T12:11:45.939Z,99757.00
2019-01-23T12:14:19.622Z,99761.14
2019-01-23T12:16:50.327Z,99760.00
2019-01-23T12:19:20.934Z,99763.90
2019-01-23T12:21:53.720Z,99764.37
2019-01-23T12:24:24.783Z,99762.11
2019-01-23T12:26:55.443Z,99765.64
2019-01-23T12:29:28.750Z,99774.22
2019-01-23T12:31:59.268Z,99769.05
2019-01-23T12:34:29.616Z,99770.08
2019-01-23T12:37:00.287Z,99767.25
2019-01-23T12:39:36.947Z,99774.16
2019-01-23T12:42:09.363Z,99771.61
2019-01-23T12:44:48.473Z,99768.97
2019-01-23T12:47:18.843Z,99769.38
2019-01-23T12:49:49.192Z,99771.70
2019-01-23T12:52:19.802Z,99770.59
2019-01-23T12:54:51.866Z,99771.45
2019-01-23T12:57:25.055Z,99769.20
2019-01-23T12:59:55.501Z,99768.76
2019-01-23T13:02:26.155Z,99778.83
2019-01-23T13:04:56.622Z,99779.27
2019-01-23T13:07:27.459Z,99779.55
2019-01-23T13:09:57.775Z,99781.34
2019-01-23T13:12:29.606Z,99787.84
2019-01-23T13:15:00.314Z,99785.73
2019-01-23T13:17:34.359Z,99786.18
2019-01-23T13:20:06.240Z,99783.62
2019-01-23T13:22:37.742Z,99789.90
2019-01-23T13:25:17.623Z,99794.00
2019-01-23T13:27:48.586Z,99789.22
2019-01-23T13:30:20.958Z,99790.63
2019-01-23T13:32:52.031Z,99785.09
2019-01-23T13:35:24.914Z,99785.23
2019-01-23T13:37:55.735Z,99793.44
2019-01-23T13:40:34.383Z,99789.41
2019-01-23T13:43:07.110Z,99789.88
2019-01-23T13:45:38.009Z,99789.88
2019-01-23T13:48:10.340Z,99791.12
2019-01-23T13:50:45.817Z,99781.83
2019-01-23T13:53:18.365Z,99785.90
2019-01-23T13:55:48.694Z,99797.62
2019-01-23T13:58:26.228Z,99794.92
2019-01-23T14:00:56.598Z,99800.52
2019-01-23T14:03:26.991Z,99804.30
2019-01-23T14:05:57.991Z,99799.52
2019-01-23T14:08:28.575Z,99802.49
2019-01-23T14:11:02.797Z,99802.81
2019-01-23T14:13:33.140Z,99807.30
2019-01-23T14:16:06.317Z,99813.16
2019-01-23T14:18:38.533Z,99821.83
2019-01-23T14:21:08.859Z,99819.92
2019-01-23T14:23:39.182Z,99832.59
2019-01-23T14:26:25.234Z,99836.81
2019-01-23T14:28:56.985Z,99841.24
2019-01-23T14:31:30.747Z,99840.91
2019-01-23T14:34:01.193Z,99843.66
2019-01-23T14:36:34.194Z,99842.98
2019-01-23T14:39:09.834Z,99844.76
2019-01-23T14:41:42.580Z,99854.66
2019-01-23T14:44:13.072Z,99858.20
2019-01-23T14:46:45.054Z,99856.05
2019-01-23T14:49:36.148Z,99853.53
2019-01-23T14:51:53.879Z,99861.95
2019-01-23T14:54:36.213Z,99864.80
2019-01-23T14:56:59.199Z,99874.77
2019-01-23T14:59:29.579Z,99873.48
2019-01-23T15:02:02.043Z,99871.87
2019-01-23T15:04:32.666Z,99877.97
2019-01-23T15:07:03.712Z,99879.68
2019-01-23T15:09:34.328Z,99879.61
2019-01-23T15:12:08.982Z,99886.39
2019-01-23T15:14:39.926Z,99887.17
2019-01-23T15:17:11.737Z,99887.17
2019-01-23T15:19:42.235Z,99897.56
2019-01-23T15:22:12.757Z,99896.89
2019-01-23T15:24:43.271Z,99907.42
2019-01-23T15:27:16.882Z,99899.52
2019-01-23T15:29:47.591Z,99904.20
2019-01-23T15:32:18.301Z,99904.72
2019-01-23T15:34:48.780Z,99913.42
2019-01-23T15:37:21.599Z,99920.52
2019-01-23T15:39:51.964Z,99923.31
2019-01-23T15:42:22.270Z,99924.33
2019-01-23T15:44:52.612Z,99928.02
2019-01-23T15:47:23.000Z,99934.31
2019-01-23T15:49:53.511Z,99937.91
2019-01-23T15:52:23.907Z,99940.70
2019-01-23T15:54:54.497Z,99951.58
2019-01-23T15:57:24.846Z,99945.56
2019-01-23T15:59:55.613Z,99950.91
2019-01-23T16:02:26.305Z,99957.96
2019-01-23T16:04:57.990Z,99957.13
2019-01-23T16:07:31.732Z,99959.33
2019-01-23T16:10:02.559Z,99964.48
2019-01-23T16:12:37.250Z,99965.18
2019-01-23T16:15:09.102Z,99977.08
2019-01-23T16:17:39.878Z,99976.33
2019-01-23T16:20:12.090Z,99979.16
2019-01-23T16:22:44.947Z,99993.69
2019-01-23T16:25:16.734Z,99991.67
2019-01-23T16:27:47.240Z,99994.30
2019-01-23T16:30:30.902Z,99997.39
2019-01-23T16:33:01.441Z,100003.19
2019-01-23T16:35:38.775Z,100008.22
2019-01-23T16:38:10.066Z,100005.44
2019-01-23T16:40:40.932Z,100015.41
2019-01-23T16:43:17.427Z,100018.80
2019-01-23T16:45:48.263Z,100019.38
2019-01-23T16:48:20.167Z,100022.19
2019-01-23T16:50:53.555Z,100026.64
2019-01-23T16:53:24.352Z,100030.98
2019-01-23T16:55:55.222Z,100039.59
2019-01-23T16:58:25.800Z,100049.06
2019-01-23T17:00:56.584Z,100042.97
2019-01-23T17:03:27.126Z,100055.45
2019-01-23T17:05:59.313Z,100060.48
2019-01-23T17:08:30.016Z,100052.74
2019-01-23T17:11:01.930Z,100065.49
2019-01-23T17:13:32.250Z,100065.30
2019-01-23T17:16:02.970Z,100072.75
2019-01-23T17:18:33.416Z,100076.02
2019-01-23T17:21:06.619Z,100077.78
2019-01-23T17:23:38.078Z,100082.02
2019-01-23T17:26:09.242Z,100088.86
2019-01-23T17:28:43.053Z,100080.45
2019-01-23T17:31:13.509Z,100078.53
2019-01-23T17:33:44.352Z,100078.53
2019-01-23T17:36:16.092Z,100099.30
2019-01-23T17:38:46.985Z,100094.95
2019-01-23T17:41:20.198Z,100093.61
2019-01-23T17:43:50.818Z,100103.44
2019-01-23T17:46:21.391Z,100102.59
2019-01-23T17:48:53.689Z,100103.36
2019-01-23T17:51:24.247Z,100108.67
2019-01-23T17:53:56.344Z,100115.72
2019-01-23T17:56:27.119Z,100115.72
2019-01-23T17:59:01.127Z,100120.25
2019-01-23T18:01:31.940Z,100122.30
2019-01-23T18:04:02.313Z,100127.99
2019-01-23T18:06:35.373Z,100128.87
2019-01-23T18:09:09.807Z,100133.10
2019-01-23T18:11:40.477Z,100136.20
2019-01-23T18:14:10.876Z,100139.77
2019-01-23T18:16:43.852Z,100143.91
2019-01-23T18:19:14.711Z,100144.79
2019-01-23T18:21:46.953Z,100154.34
2019-01-23T18:24:20.890Z,100162.63
2019-01-23T18:26:51.504Z,100159.66
2019-01-23T18:29:22.057Z,100160.53
2019-01-23T18:32:02.861Z,100160.03
2019-01-23T18:35:06.453Z,100166.14
2019-01-23T18:37:54.775Z,100166.14
2019-01-23T18:41:12.622Z,100173.14
2019-01-23T18:44:09.592Z,100173.14
2019-01-23T18:47:21.638Z,100181.17
2019-01-23T18:50:31.866Z,100183.56
2019-01-23T18:53:02.476Z,100183.10
2019-01-23T18:55:34.760Z,100185.12
2019-01-23T18:58:06.605Z,100179.80
2019-01-23T19:00:37.442Z,100183.10
2019-01-23T19:03:08.484Z,100196.84
2019-01-23T19:05:42.031Z,100199.84
2019-01-23T19:08:15.074Z,100197.33
2019-01-23T19:10:45.501Z,100193.36
2019-01-23T19:13:17.625Z,100201.15
2019-01-23T19:15:47.998Z,100198.84
2019-01-23T19:18:18.621Z,100199.51
2019-01-23T19:20:50.639Z,100201.61
2019-01-23T19:23:21.080Z,100207.05
2019-01-23T19:25:51.525Z,100201.02
2019-01-23T19:28:22.601Z,100210.69
2019-01-23T19:30:55.255Z,100201.31
2019-01-23T19:33:25.868Z,100200.81
2019-01-23T19:35:56.773Z,100197.55
2019-01-23T19:38:28.173Z,100202.56
2019-01-23T19:40:58.748Z,100204.87
2019-01-23T19:43:31.260Z,100202.36
2019-01-23T19:46:05.604Z,100215.58
2019-01-23T19:48:36.465Z,100215.58
2019-01-23T19:51:09.679Z,100220.60
2019-01-23T19:53:40.632Z,100217.21
2019-01-23T19:56:11.305Z,100217.21
2019-01-23T19:58:42.952Z,100221.77
2019-01-23T20:01:14.695Z,100222.31
2019-01-23T20:03:45.388Z,100226.58
2019-01-23T20:06:16.045Z,100235.95
2019-01-23T20:08:50.825Z,100238.13
2019-01-23T20:11:21.303Z,100235.03
2019-01-23T20:13:53.341Z,100242.56
2019-01-23T20:16:25.079Z,100242.72
2019-01-23T20:18:57.734Z,100241.29
2019-01-23T20:21:28.133Z,100250.45
2019-01-23T20:24:03.890Z,100240.36
2019-01-23T20:26:33.179Z,100241.18
2019-01-23T20:29:03.916Z,100243.19
2019-01-23T20:31:37.852Z,100248.99
2019-01-23T20:34:09.990Z,100256.52
2019-01-23T20:36:40.659Z,100256.81
2019-01-23T20:39:12.445Z,100264.88
2019-01-23T20:41:51.562Z,100264.88
2019-01-23T20:44:19.154Z,100264.78
2019-01-23T20:46:49.610Z,100264.88
2019-01-23T20:49:30.185Z,100269.89
2019-01-23T20:52:00.719Z,100268.26
2019-01-23T20:54:31.067Z,100272.91
2019-01-23T20:57:03.563Z,100281.91
2019-01-23T20:59:34.560Z,100283.41
2019-01-23T21:02:05.710Z,100289.81
2019-01-23T21:04:38.123Z,100283.53
2019-01-23T21:07:08.512Z,100291.66
2019-01-23T21:09:41.840Z,100281.63
2019-01-23T21:12:18.495Z,100281.63
2019-01-23T21:14:44.877Z,100285.10
2019-01-23T21:17:15.707Z,100285.98
2019-01-23T21:19:49.274Z,100293.73
2019-01-23T21:22:21.451Z,100289.09
2019-01-23T21:24:51.833Z,100299.41
2019-01-23T21:27:23.612Z,100300.45
2019-01-23T21:29:57.145Z,100303.77
2019-01-23T21:32:28.625Z,100312.94
2019-01-23T21:34:59.039Z,100305.69
2019-01-23T21:37:29.446Z,100311.45
2019-01-23T21:39:59.943Z,100312.34
2019-01-23T21:42:33.448Z,100317.45
2019-01-23T21:45:03.998Z,100313.91
2019-01-23T21:47:34.704Z,100313.15
2019-01-23T21:50:07.770Z,100320.59
2019-01-23T21:52:38.727Z,100329.38
2019-01-23T21:55:11.321Z,100320.08
2019-01-23T21:57:43.257Z,100335.23
2019-01-23T22:00:27.516Z,100330.12
2019-01-23T22:03:01.813Z,100333.73
2019-01-23T22:05:35.946Z,100336.24
2019-01-23T22:08:10.382Z,100334.48
2019-01-23T22:10:40.944Z,100343.77
2019-01-23T22:13:11.676Z,100342.23
2019-01-23T22:15:43.605Z,100346.75
2019-01-23T22:18:15.717Z,100351.08
2019-01-23T22:20:46.570Z,100345.84
2019-01-23T22:23:17.015Z,100347.84
2019-01-23T22:25:48.719Z,100351.90
2019-01-23T22:28:23.460Z,100357.66
2019-01-23T22:30:54.622Z,100358.92
2019-01-23T22:33:24.998Z,100362.41
2019-01-23T22:35:58.556Z,100367.42
2019-01-23T22:38:28.856Z,100369.75
2019-01-23T22:40:59.541Z,100370.27
2019-01-23T22:43:32.666Z,100376.55
2019-01-23T22:46:03.194Z,100376.39
2019-01-23T22:48:33.607Z,100379.00
2019-01-23T22:51:04.047Z,100383.14
2019-01-23T22:53:34.658Z,100385.65
2019-01-23T22:56:05.619Z,100384.02
2019-01-23T22:58:42.916Z,100386.66
2019-01-23T23:01:26.361Z,100386.53
2019-01-23T23:04:03.123Z,100387.78
2019-01-23T23:06:29.858Z,100389.92
2019-01-23T23:09:01.822Z,100396.72
2019-01-23T23:11:35.211Z,100399.13
2019-01-23T23:14:06.834Z,100401.64
2019-01-23T23:16:40.726Z,100411.69
2019-01-23T23:19:11.385Z,100407.41
2019-01-23T23:21:43.198Z,100420.47
2019-01-23T23:24:13.531Z,100417.45
2019-01-23T23:26:43.873Z,100420.37
2019-01-23T23:29:14.467Z,100421.22
2019-01-23T23:31:46.103Z,100431.66
2019-01-23T23:34:16.791Z,100430.78
2019-01-23T23:36:47.642Z,100434.05
2019-01-23T23:39:18.278Z,100436.05
2019-01-23T23:41:48.635Z,100440.59
2019-01-23T23:44:19.315Z,100441.11
2019-01-23T23:46:49.693Z,100446.51
2019-01-23T23:49:20.354Z,100444.66
2019-01-23T23:51:50.808Z,100446.51
2019-01-23T23:54:21.166Z,100456.67
2019-01-23T23:56:51.521Z,100456.67
2019-01-23T23:59:22.123Z,100457.88
